Terminal Aerodrome Forecast
Issued by NWS

Home | Current Version | Previous Version | Text Only | Print | Product List | Glossary On
Versions: 1 2 3 4 5 6 7 8 9 10 11 12 13 14 15 16 17 18 19
000
FTUS46 KLOX 140303 AAB
TAFSBA
TAF AMD
KSBA 140303Z 1403/1424 VRB03KT 6SM FU SKC
     FM140800 VRB03KT 4SM FU SCT015
     FM142200 23008KT 6SM FU SKC=

USA.gov is the U.S. government's official web portal to all federal, state and local government web resources and services.